sensor_id;sensor_type;location;lat;lon;timestamp;temperature;humidity
21559;DHT22;10940;48.890;8.240;2023-06-22T00:02:22;23.00;99.90
21559;DHT22;10940;48.890;8.240;2023-06-22T00:04:47;23.00;99.90
21559;DHT22;10940;48.890;8.240;2023-06-22T00:07:13;23.00;99.90
21559;DHT22;10940;48.890;8.240;2023-06-22T00:09:38;22.90;99.90
21559;DHT22;10940;48.890;8.240;2023-06-22T00:12:04;23.00;99.90
21559;DHT22;10940;48.890;8.240;2023-06-22T00:14:30;23.00;99.90
21559;DHT22;10940;48.890;8.240;2023-06-22T00:16:55;23.00;99.90
21559;DHT22;10940;48.890;8.240;2023-06-22T00:19:22;23.10;99.90
21559;DHT22;10940;48.890;8.240;2023-06-22T00:21:48;23.10;99.90
21559;DHT22;10940;48.890;8.240;2023-06-22T00:24:18;23.10;99.90
21559;DHT22;10940;48.890;8.240;2023-06-22T00:26:44;23.00;99.90
21559;DHT22;10940;48.890;8.240;2023-06-22T00:29:09;22.80;99.90
21559;DHT22;10940;48.890;8.240;2023-06-22T00:31:35;22.40;99.90
21559;DHT22;10940;48.890;8.240;2023-06-22T00:34:00;22.00;99.90
21559;DHT22;10940;48.890;8.240;2023-06-22T00:36:26;21.70;99.90
21559;DHT22;10940;48.890;8.240;2023-06-22T00:38:51;21.40;99.90
21559;DHT22;10940;48.890;8.240;2023-06-22T00:41:17;21.20;99.90
21559;DHT22;10940;48.890;8.240;2023-06-22T00:43:43;21.00;99.90
21559;DHT22;10940;48.890;8.240;2023-06-22T00:46:08;20.90;99.90
21559;DHT22;10940;48.890;8.240;2023-06-22T00:48:34;20.80;99.90
21559;DHT22;10940;48.890;8.240;2023-06-22T00:51:02;20.70;99.90
21559;DHT22;10940;48.890;8.240;2023-06-22T00:53:28;20.60;99.90
21559;DHT22;10940;48.890;8.240;2023-06-22T00:55:53;20.60;99.90
21559;DHT22;10940;48.890;8.240;2023-06-22T00:58:19;20.40;99.90
21559;DHT22;10940;48.890;8.240;2023-06-22T01:00:47;20.40;99.90
21559;DHT22;10940;48.890;8.240;2023-06-22T01:03:13;20.30;99.90
21559;DHT22;10940;48.890;8.240;2023-06-22T01:05:39;20.20;99.90
21559;DHT22;10940;48.890;8.240;2023-06-22T01:11:16;20.20;99.90
21559;DHT22;10940;48.890;8.240;2023-06-22T01:16:29;20.20;99.90
21559;DHT22;10940;48.890;8.240;2023-06-22T01:18:57;20.20;99.90
21559;DHT22;10940;48.890;8.240;2023-06-22T01:21:25;20.20;99.90
21559;DHT22;10940;48.890;8.240;2023-06-22T01:24:16;20.20;99.90
21559;DHT22;10940;48.890;8.240;2023-06-22T01:26:58;20.10;99.90
21559;DHT22;10940;48.890;8.240;2023-06-22T01:29:26;20.10;99.90
21559;DHT22;10940;48.890;8.240;2023-06-22T01:31:54;20.10;99.90
21559;DHT22;10940;48.890;8.240;2023-06-22T01:34:21;20.10;99.90
21559;DHT22;10940;48.890;8.240;2023-06-22T01:36:50;20.10;99.90
21559;DHT22;10940;48.890;8.240;2023-06-22T01:39:17;20.10;99.90
21559;DHT22;10940;48.890;8.240;2023-06-22T01:41:43;20.00;99.90
21559;DHT22;10940;48.890;8.240;2023-06-22T01:44:09;20.00;99.90
21559;DHT22;10940;48.890;8.240;2023-06-22T01:46:37;20.00;99.90
21559;DHT22;10940;48.890;8.240;2023-06-22T01:49:04;19.90;99.90
21559;DHT22;10940;48.890;8.240;2023-06-22T01:51:30;19.80;99.90
21559;DHT22;10940;48.890;8.240;2023-06-22T01:53:55;19.80;99.90
21559;DHT22;10940;48.890;8.240;2023-06-22T01:56:21;19.80;99.90
21559;DHT22;10940;48.890;8.240;2023-06-22T02:01:36;19.80;99.90
21559;DHT22;10940;48.890;8.240;2023-06-22T02:04:21;19.70;99.90
21559;DHT22;10940;48.890;8.240;2023-06-22T02:06:53;19.70;99.90
21559;DHT22;10940;48.890;8.240;2023-06-22T02:09:21;19.70;99.90
21559;DHT22;10940;48.890;8.240;2023-06-22T02:11:48;19.70;99.90
21559;DHT22;10940;48.890;8.240;2023-06-22T02:14:17;19.60;99.90
21559;DHT22;10940;48.890;8.240;2023-06-22T02:16:43;19.60;99.90
21559;DHT22;10940;48.890;8.240;2023-06-22T02:19:09;19.60;99.90
21559;DHT22;10940;48.890;8.240;2023-06-22T02:21:35;19.70;99.90
21559;DHT22;10940;48.890;8.240;2023-06-22T02:24:00;19.60;99.90
21559;DHT22;10940;48.890;8.240;2023-06-22T02:26:26;19.60;99.90
21559;DHT22;10940;48.890;8.240;2023-06-22T02:28:52;19.60;99.90
21559;DHT22;10940;48.890;8.240;2023-06-22T02:31:19;19.60;99.90
21559;DHT22;10940;48.890;8.240;2023-06-22T02:33:45;19.60;99.90
21559;DHT22;10940;48.890;8.240;2023-06-22T02:36:11;19.60;99.90
21559;DHT22;10940;48.890;8.240;2023-06-22T02:38:41;19.50;99.90
21559;DHT22;10940;48.890;8.240;2023-06-22T02:41:14;19.50;99.90
21559;DHT22;10940;48.890;8.240;2023-06-22T02:43:44;19.50;99.90
21559;DHT22;10940;48.890;8.240;2023-06-22T02:46:10;19.50;99.90
21559;DHT22;10940;48.890;8.240;2023-06-22T02:48:35;19.50;99.90
21559;DHT22;10940;48.890;8.240;2023-06-22T02:51:01;19.50;99.90
21559;DHT22;10940;48.890;8.240;2023-06-22T02:53:26;19.50;99.90
21559;DHT22;10940;48.890;8.240;2023-06-22T02:55:52;19.50;99.90
21559;DHT22;10940;48.890;8.240;2023-06-22T02:58:17;19.50;99.90
21559;DHT22;10940;48.890;8.240;2023-06-22T03:00:43;19.40;99.90
21559;DHT22;10940;48.890;8.240;2023-06-22T03:03:08;19.40;99.90
21559;DHT22;10940;48.890;8.240;2023-06-22T03:05:34;19.40;99.90
21559;DHT22;10940;48.890;8.240;2023-06-22T03:08:00;19.40;99.90
21559;DHT22;10940;48.890;8.240;2023-06-22T03:10:26;19.40;99.90
21559;DHT22;10940;48.890;8.240;2023-06-22T03:12:52;19.30;99.90
21559;DHT22;10940;48.890;8.240;2023-06-22T03:15:18;19.30;99.90
21559;DHT22;10940;48.890;8.240;2023-06-22T03:17:43;19.30;99.90
21559;DHT22;10940;48.890;8.240;2023-06-22T03:20:10;19.40;99.90
21559;DHT22;10940;48.890;8.240;2023-06-22T03:22:40;19.40;99.90
21559;DHT22;10940;48.890;8.240;2023-06-22T03:25:07;19.40;99.90
21559;DHT22;10940;48.890;8.240;2023-06-22T03:27:38;19.40;99.90
21559;DHT22;10940;48.890;8.240;2023-06-22T03:30:05;19.40;99.90
21559;DHT22;10940;48.890;8.240;2023-06-22T03:32:31;19.40;99.90
21559;DHT22;10940;48.890;8.240;2023-06-22T03:34:56;19.40;99.90
21559;DHT22;10940;48.890;8.240;2023-06-22T03:37:27;19.40;99.90
21559;DHT22;10940;48.890;8.240;2023-06-22T03:39:53;19.40;99.90
21559;DHT22;10940;48.890;8.240;2023-06-22T03:42:19;19.30;99.90
21559;DHT22;10940;48.890;8.240;2023-06-22T03:44:44;19.40;99.90
21559;DHT22;10940;48.890;8.240;2023-06-22T03:47:10;19.40;99.90
21559;DHT22;10940;48.890;8.240;2023-06-22T03:49:36;19.40;99.90
21559;DHT22;10940;48.890;8.240;2023-06-22T03:52:02;19.30;99.90
21559;DHT22;10940;48.890;8.240;2023-06-22T03:54:29;19.30;99.90
21559;DHT22;10940;48.890;8.240;2023-06-22T03:56:56;19.40;99.90
21559;DHT22;10940;48.890;8.240;2023-06-22T03:59:22;19.30;99.90
21559;DHT22;10940;48.890;8.240;2023-06-22T04:01:48;19.30;99.90
21559;DHT22;10940;48.890;8.240;2023-06-22T04:04:13;19.40;99.90
21559;DHT22;10940;48.890;8.240;2023-06-22T04:06:39;19.40;99.90
21559;DHT22;10940;48.890;8.240;2023-06-22T04:09:06;19.40;99.90
21559;DHT22;10940;48.890;8.240;2023-06-22T04:11:31;19.40;99.90
21559;DHT22;10940;48.890;8.240;2023-06-22T04:13:57;19.40;99.90
21559;DHT22;10940;48.890;8.240;2023-06-22T04:16:23;19.40;99.90
21559;DHT22;10940;48.890;8.240;2023-06-22T04:18:48;19.50;99.90
21559;DHT22;10940;48.890;8.240;2023-06-22T04:21:14;19.40;99.90
21559;DHT22;10940;48.890;8.240;2023-06-22T04:23:39;19.50;99.90
21559;DHT22;10940;48.890;8.240;2023-06-22T04:26:05;19.50;99.90
21559;DHT22;10940;48.890;8.240;2023-06-22T04:28:31;19.60;99.90
21559;DHT22;10940;48.890;8.240;2023-06-22T04:31:03;19.60;99.90
21559;DHT22;10940;48.890;8.240;2023-06-22T04:33:29;19.60;99.90
21559;DHT22;10940;48.890;8.240;2023-06-22T04:35:55;19.70;99.90
21559;DHT22;10940;48.890;8.240;2023-06-22T04:38:22;19.70;99.90
21559;DHT22;10940;48.890;8.240;2023-06-22T04:40:48;19.70;99.90
21559;DHT22;10940;48.890;8.240;2023-06-22T04:43:14;19.70;99.90
21559;DHT22;10940;48.890;8.240;2023-06-22T04:45:40;19.70;99.90
21559;DHT22;10940;48.890;8.240;2023-06-22T04:48:05;19.80;99.90
21559;DHT22;10940;48.890;8.240;2023-06-22T04:50:31;19.80;99.90
21559;DHT22;10940;48.890;8.240;2023-06-22T04:52:57;19.80;99.90
21559;DHT22;10940;48.890;8.240;2023-06-22T04:55:23;19.90;99.90
21559;DHT22;10940;48.890;8.240;2023-06-22T04:57:51;20.00;99.90
21559;DHT22;10940;48.890;8.240;2023-06-22T05:00:20;20.00;99.90
21559;DHT22;10940;48.890;8.240;2023-06-22T05:02:48;20.10;99.90
21559;DHT22;10940;48.890;8.240;2023-06-22T05:05:15;20.10;99.90
21559;DHT22;10940;48.890;8.240;2023-06-22T05:07:49;20.20;99.90
21559;DHT22;10940;48.890;8.240;2023-06-22T05:10:16;20.30;99.90
21559;DHT22;10940;48.890;8.240;2023-06-22T05:12:42;20.30;99.90
21559;DHT22;10940;48.890;8.240;2023-06-22T05:15:08;20.40;99.90
21559;DHT22;10940;48.890;8.240;2023-06-22T05:17:35;20.50;99.90
21559;DHT22;10940;48.890;8.240;2023-06-22T05:20:02;20.50;99.90
21559;DHT22;10940;48.890;8.240;2023-06-22T05:22:31;20.60;99.90
21559;DHT22;10940;48.890;8.240;2023-06-22T05:24:57;20.60;99.90
21559;DHT22;10940;48.890;8.240;2023-06-22T05:27:22;20.70;99.90
21559;DHT22;10940;48.890;8.240;2023-06-22T05:29:48;20.80;99.90
21559;DHT22;10940;48.890;8.240;2023-06-22T05:32:14;20.80;99.90
21559;DHT22;10940;48.890;8.240;2023-06-22T05:34:39;20.90;99.90
21559;DHT22;10940;48.890;8.240;2023-06-22T05:37:05;21.00;99.90
21559;DHT22;10940;48.890;8.240;2023-06-22T05:39:31;21.10;99.90
21559;DHT22;10940;48.890;8.240;2023-06-22T05:41:57;21.10;99.90
21559;DHT22;10940;48.890;8.240;2023-06-22T05:44:23;21.20;99.90
21559;DHT22;10940;48.890;8.240;2023-06-22T05:46:48;21.20;99.90
21559;DHT22;10940;48.890;8.240;2023-06-22T05:49:14;21.20;99.90
21559;DHT22;10940;48.890;8.240;2023-06-22T05:51:41;21.30;99.90
21559;DHT22;10940;48.890;8.240;2023-06-22T05:54:06;21.30;99.90
21559;DHT22;10940;48.890;8.240;2023-06-22T05:56:33;21.40;99.90
21559;DHT22;10940;48.890;8.240;2023-06-22T05:58:59;21.40;99.90
21559;DHT22;10940;48.890;8.240;2023-06-22T06:01:24;21.50;99.90
21559;DHT22;10940;48.890;8.240;2023-06-22T06:03:51;21.50;99.90
21559;DHT22;10940;48.890;8.240;2023-06-22T06:06:18;21.50;99.90
21559;DHT22;10940;48.890;8.240;2023-06-22T06:08:46;21.50;99.90
21559;DHT22;10940;48.890;8.240;2023-06-22T06:11:12;21.50;99.90
21559;DHT22;10940;48.890;8.240;2023-06-22T06:13:37;21.60;99.90
21559;DHT22;10940;48.890;8.240;2023-06-22T06:16:03;21.70;99.90
21559;DHT22;10940;48.890;8.240;2023-06-22T06:18:29;21.80;99.90
21559;DHT22;10940;48.890;8.240;2023-06-22T06:20:54;21.90;99.90
21559;DHT22;10940;48.890;8.240;2023-06-22T06:23:20;22.00;99.90
21559;DHT22;10940;48.890;8.240;2023-06-22T06:25:45;22.00;99.90
21559;DHT22;10940;48.890;8.240;2023-06-22T06:28:11;22.20;99.90
21559;DHT22;10940;48.890;8.240;2023-06-22T06:30:36;22.20;99.90
21559;DHT22;10940;48.890;8.240;2023-06-22T06:33:02;22.40;99.90
21559;DHT22;10940;48.890;8.240;2023-06-22T06:35:30;22.50;99.90
21559;DHT22;10940;48.890;8.240;2023-06-22T06:37:55;22.60;99.90
21559;DHT22;10940;48.890;8.240;2023-06-22T06:40:21;22.60;99.90
21559;DHT22;10940;48.890;8.240;2023-06-22T06:42:48;22.70;99.90
21559;DHT22;10940;48.890;8.240;2023-06-22T06:45:20;22.90;99.90
21559;DHT22;10940;48.890;8.240;2023-06-22T06:47:48;23.00;99.90
21559;DHT22;10940;48.890;8.240;2023-06-22T06:50:14;23.10;99.90
21559;DHT22;10940;48.890;8.240;2023-06-22T06:52:40;23.20;99.90
21559;DHT22;10940;48.890;8.240;2023-06-22T06:55:06;23.20;99.90
21559;DHT22;10940;48.890;8.240;2023-06-22T06:57:33;23.30;99.90
21559;DHT22;10940;48.890;8.240;2023-06-22T06:59:59;23.50;99.90
21559;DHT22;10940;48.890;8.240;2023-06-22T07:02:25;23.50;99.90
21559;DHT22;10940;48.890;8.240;2023-06-22T07:04:53;23.60;99.90
21559;DHT22;10940;48.890;8.240;2023-06-22T07:07:20;23.60;99.90
21559;DHT22;10940;48.890;8.240;2023-06-22T07:09:46;23.70;99.90
21559;DHT22;10940;48.890;8.240;2023-06-22T07:12:11;23.80;99.90
21559;DHT22;10940;48.890;8.240;2023-06-22T07:14:37;23.90;99.90
21559;DHT22;10940;48.890;8.240;2023-06-22T07:17:02;24.00;99.90
21559;DHT22;10940;48.890;8.240;2023-06-22T07:19:28;24.10;99.90
21559;DHT22;10940;48.890;8.240;2023-06-22T07:21:54;24.20;99.90
21559;DHT22;10940;48.890;8.240;2023-06-22T07:24:23;24.30;99.90
21559;DHT22;10940;48.890;8.240;2023-06-22T07:26:50;24.40;99.90
21559;DHT22;10940;48.890;8.240;2023-06-22T07:29:19;24.50;99.90
21559;DHT22;10940;48.890;8.240;2023-06-22T07:31:46;24.60;99.90
21559;DHT22;10940;48.890;8.240;2023-06-22T07:34:13;24.80;99.90
21559;DHT22;10940;48.890;8.240;2023-06-22T07:36:38;25.00;99.90
21559;DHT22;10940;48.890;8.240;2023-06-22T07:39:04;25.10;99.90
21559;DHT22;10940;48.890;8.240;2023-06-22T07:41:30;25.20;99.90
21559;DHT22;10940;48.890;8.240;2023-06-22T07:43:56;25.30;99.90
21559;DHT22;10940;48.890;8.240;2023-06-22T07:46:22;25.40;99.90
21559;DHT22;10940;48.890;8.240;2023-06-22T07:48:48;25.50;99.90
21559;DHT22;10940;48.890;8.240;2023-06-22T07:51:14;25.60;99.90
21559;DHT22;10940;48.890;8.240;2023-06-22T07:53:44;25.70;99.90
21559;DHT22;10940;48.890;8.240;2023-06-22T07:56:13;25.80;99.90
21559;DHT22;10940;48.890;8.240;2023-06-22T07:58:39;25.80;99.90
21559;DHT22;10940;48.890;8.240;2023-06-22T08:01:05;26.00;99.90
21559;DHT22;10940;48.890;8.240;2023-06-22T08:03:31;26.10;99.90
21559;DHT22;10940;48.890;8.240;2023-06-22T08:05:57;26.20;99.90
21559;DHT22;10940;48.890;8.240;2023-06-22T08:08:23;26.30;99.90
21559;DHT22;10940;48.890;8.240;2023-06-22T08:10:49;26.40;99.90
21559;DHT22;10940;48.890;8.240;2023-06-22T08:13:14;26.40;99.90
21559;DHT22;10940;48.890;8.240;2023-06-22T08:15:40;26.40;99.90
21559;DHT22;10940;48.890;8.240;2023-06-22T08:18:05;26.40;99.90
21559;DHT22;10940;48.890;8.240;2023-06-22T08:20:31;26.50;99.90
21559;DHT22;10940;48.890;8.240;2023-06-22T08:22:57;26.70;99.90
21559;DHT22;10940;48.890;8.240;2023-06-22T08:25:26;26.70;99.90
21559;DHT22;10940;48.890;8.240;2023-06-22T08:27:51;26.80;99.90
21559;DHT22;10940;48.890;8.240;2023-06-22T08:30:18;27.00;99.90
21559;DHT22;10940;48.890;8.240;2023-06-22T08:32:44;27.20;99.90
21559;DHT22;10940;48.890;8.240;2023-06-22T08:35:10;27.30;99.90
21559;DHT22;10940;48.890;8.240;2023-06-22T08:37:36;27.40;99.90
21559;DHT22;10940;48.890;8.240;2023-06-22T08:40:04;27.50;99.90
21559;DHT22;10940;48.890;8.240;2023-06-22T08:42:33;27.60;99.90
21559;DHT22;10940;48.890;8.240;2023-06-22T08:45:00;27.70;99.90
21559;DHT22;10940;48.890;8.240;2023-06-22T08:47:28;27.80;99.90
21559;DHT22;10940;48.890;8.240;2023-06-22T08:49:54;27.90;99.90
21559;DHT22;10940;48.890;8.240;2023-06-22T08:52:19;28.00;99.90
21559;DHT22;10940;48.890;8.240;2023-06-22T08:54:46;28.00;99.90
21559;DHT22;10940;48.890;8.240;2023-06-22T08:57:12;28.00;99.90
21559;DHT22;10940;48.890;8.240;2023-06-22T08:59:37;28.10;99.90
21559;DHT22;10940;48.890;8.240;2023-06-22T09:02:03;28.10;99.90
21559;DHT22;10940;48.890;8.240;2023-06-22T09:04:29;28.10;99.90
21559;DHT22;10940;48.890;8.240;2023-06-22T09:06:54;28.10;99.90
21559;DHT22;10940;48.890;8.240;2023-06-22T09:09:21;28.20;99.90
21559;DHT22;10940;48.890;8.240;2023-06-22T09:11:47;28.20;99.90
21559;DHT22;10940;48.890;8.240;2023-06-22T09:14:12;28.10;99.90
21559;DHT22;10940;48.890;8.240;2023-06-22T09:16:38;28.10;99.90
21559;DHT22;10940;48.890;8.240;2023-06-22T09:19:03;28.10;99.90
21559;DHT22;10940;48.890;8.240;2023-06-22T09:21:29;28.10;99.90
21559;DHT22;10940;48.890;8.240;2023-06-22T09:23:55;28.20;99.90
21559;DHT22;10940;48.890;8.240;2023-06-22T09:26:21;28.30;99.90
21559;DHT22;10940;48.890;8.240;2023-06-22T09:28:47;28.30;99.90
21559;DHT22;10940;48.890;8.240;2023-06-22T09:31:13;28.30;99.90
21559;DHT22;10940;48.890;8.240;2023-06-22T09:33:40;28.30;99.90
21559;DHT22;10940;48.890;8.240;2023-06-22T09:36:09;28.30;99.90
21559;DHT22;10940;48.890;8.240;2023-06-22T09:38:38;28.30;99.90
21559;DHT22;10940;48.890;8.240;2023-06-22T09:41:04;28.40;99.90
21559;DHT22;10940;48.890;8.240;2023-06-22T09:43:32;28.50;99.90
21559;DHT22;10940;48.890;8.240;2023-06-22T09:46:00;28.70;99.90
21559;DHT22;10940;48.890;8.240;2023-06-22T09:48:27;28.70;99.90
21559;DHT22;10940;48.890;8.240;2023-06-22T09:50:53;28.70;99.90
21559;DHT22;10940;48.890;8.240;2023-06-22T09:53:19;28.80;99.90
21559;DHT22;10940;48.890;8.240;2023-06-22T09:55:45;28.70;99.90
21559;DHT22;10940;48.890;8.240;2023-06-22T09:58:10;28.70;99.90
21559;DHT22;10940;48.890;8.240;2023-06-22T10:00:36;28.70;99.90
21559;DHT22;10940;48.890;8.240;2023-06-22T10:03:01;28.70;99.90
21559;DHT22;10940;48.890;8.240;2023-06-22T10:05:27;28.70;99.90
21559;DHT22;10940;48.890;8.240;2023-06-22T10:07:52;28.80;99.90
21559;DHT22;10940;48.890;8.240;2023-06-22T10:10:18;28.80;99.90
21559;DHT22;10940;48.890;8.240;2023-06-22T10:12:54;28.80;99.90
21559;DHT22;10940;48.890;8.240;2023-06-22T10:15:19;28.70;99.90
21559;DHT22;10940;48.890;8.240;2023-06-22T10:17:46;28.70;99.90
21559;DHT22;10940;48.890;8.240;2023-06-22T10:20:12;28.80;99.90
21559;DHT22;10940;48.890;8.240;2023-06-22T10:22:42;28.80;99.90
21559;DHT22;10940;48.890;8.240;2023-06-22T10:25:10;28.80;99.90
21559;DHT22;10940;48.890;8.240;2023-06-22T10:27:36;28.80;99.90
21559;DHT22;10940;48.890;8.240;2023-06-22T10:30:08;28.80;99.90
21559;DHT22;10940;48.890;8.240;2023-06-22T10:32:34;28.80;99.90
21559;DHT22;10940;48.890;8.240;2023-06-22T10:35:00;28.80;99.90
21559;DHT22;10940;48.890;8.240;2023-06-22T10:37:26;28.90;99.90
21559;DHT22;10940;48.890;8.240;2023-06-22T10:39:51;28.80;99.90
21559;DHT22;10940;48.890;8.240;2023-06-22T10:42:17;28.80;99.90
21559;DHT22;10940;48.890;8.240;2023-06-22T10:44:42;28.80;99.90
21559;DHT22;10940;48.890;8.240;2023-06-22T10:47:09;28.90;99.90
21559;DHT22;10940;48.890;8.240;2023-06-22T10:49:38;28.90;99.90
21559;DHT22;10940;48.890;8.240;2023-06-22T10:52:03;29.00;99.90
21559;DHT22;10940;48.890;8.240;2023-06-22T10:54:29;29.00;99.90
21559;DHT22;10940;48.890;8.240;2023-06-22T10:56:55;29.20;99.90
21559;DHT22;10940;48.890;8.240;2023-06-22T10:59:21;29.30;99.90
21559;DHT22;10940;48.890;8.240;2023-06-22T11:01:49;29.50;99.90
21559;DHT22;10940;48.890;8.240;2023-06-22T11:04:14;29.60;99.90
21559;DHT22;10940;48.890;8.240;2023-06-22T11:06:40;29.70;99.90
21559;DHT22;10940;48.890;8.240;2023-06-22T11:09:05;29.70;99.90
21559;DHT22;10940;48.890;8.240;2023-06-22T11:11:31;29.70;99.90
21559;DHT22;10940;48.890;8.240;2023-06-22T11:13:56;29.50;99.90
21559;DHT22;10940;48.890;8.240;2023-06-22T11:16:22;29.60;99.90
21559;DHT22;10940;48.890;8.240;2023-06-22T11:18:47;29.80;99.90
21559;DHT22;10940;48.890;8.240;2023-06-22T11:21:13;30.00;99.90
21559;DHT22;10940;48.890;8.240;2023-06-22T11:23:39;30.20;99.90
21559;DHT22;10940;48.890;8.240;2023-06-22T11:26:04;30.30;99.90
21559;DHT22;10940;48.890;8.240;2023-06-22T11:28:30;30.40;99.90
21559;DHT22;10940;48.890;8.240;2023-06-22T11:30:55;30.50;99.90
21559;DHT22;10940;48.890;8.240;2023-06-22T11:33:21;30.60;99.90
21559;DHT22;10940;48.890;8.240;2023-06-22T11:35:47;30.60;99.90
21559;DHT22;10940;48.890;8.240;2023-06-22T11:38:12;30.60;99.90
21559;DHT22;10940;48.890;8.240;2023-06-22T11:40:38;30.50;99.90
21559;DHT22;10940;48.890;8.240;2023-06-22T11:43:03;30.40;99.90
21559;DHT22;10940;48.890;8.240;2023-06-22T11:45:29;30.30;99.90
21559;DHT22;10940;48.890;8.240;2023-06-22T11:47:55;30.30;99.90
21559;DHT22;10940;48.890;8.240;2023-06-22T11:50:20;30.40;99.90
21559;DHT22;10940;48.890;8.240;2023-06-22T11:52:46;30.40;99.90
21559;DHT22;10940;48.890;8.240;2023-06-22T11:55:11;30.50;99.90
21559;DHT22;10940;48.890;8.240;2023-06-22T11:57:38;30.70;99.90
21559;DHT22;10940;48.890;8.240;2023-06-22T12:00:04;30.70;99.90
21559;DHT22;10940;48.890;8.240;2023-06-22T12:02:43;30.70;99.90
21559;DHT22;10940;48.890;8.240;2023-06-22T12:05:10;30.70;99.90
21559;DHT22;10940;48.890;8.240;2023-06-22T12:07:36;30.70;99.90
21559;DHT22;10940;48.890;8.240;2023-06-22T12:10:03;30.70;99.90
21559;DHT22;10940;48.890;8.240;2023-06-22T12:12:29;30.70;99.90
21559;DHT22;10940;48.890;8.240;2023-06-22T12:14:54;30.70;99.90
21559;DHT22;10940;48.890;8.240;2023-06-22T12:17:20;30.70;99.90
21559;DHT22;10940;48.890;8.240;2023-06-22T12:19:45;30.70;99.90
21559;DHT22;10940;48.890;8.240;2023-06-22T12:22:11;30.70;99.90
21559;DHT22;10940;48.890;8.240;2023-06-22T12:24:37;30.70;99.90
21559;DHT22;10940;48.890;8.240;2023-06-22T12:27:03;30.50;99.90
21559;DHT22;10940;48.890;8.240;2023-06-22T12:29:28;30.40;99.90
21559;DHT22;10940;48.890;8.240;2023-06-22T12:31:54;30.30;99.90
21559;DHT22;10940;48.890;8.240;2023-06-22T12:34:20;30.10;99.90
21559;DHT22;10940;48.890;8.240;2023-06-22T12:36:45;30.00;99.90
21559;DHT22;10940;48.890;8.240;2023-06-22T12:39:13;29.90;99.90
21559;DHT22;10940;48.890;8.240;2023-06-22T12:41:39;29.90;99.90
21559;DHT22;10940;48.890;8.240;2023-06-22T12:44:04;29.90;99.90
21559;DHT22;10940;48.890;8.240;2023-06-22T12:46:30;30.00;99.90
21559;DHT22;10940;48.890;8.240;2023-06-22T12:49:02;30.10;99.90
21559;DHT22;10940;48.890;8.240;2023-06-22T12:51:27;30.30;99.90
21559;DHT22;10940;48.890;8.240;2023-06-22T12:53:53;30.40;99.90
21559;DHT22;10940;48.890;8.240;2023-06-22T12:56:18;30.60;99.90
21559;DHT22;10940;48.890;8.240;2023-06-22T12:58:44;30.70;99.90
21559;DHT22;10940;48.890;8.240;2023-06-22T13:01:09;30.80;99.90
21559;DHT22;10940;48.890;8.240;2023-06-22T13:03:35;30.90;99.90
21559;DHT22;10940;48.890;8.240;2023-06-22T13:06:01;31.20;99.90
21559;DHT22;10940;48.890;8.240;2023-06-22T13:08:27;31.40;99.90
21559;DHT22;10940;48.890;8.240;2023-06-22T13:10:53;31.70;99.90
21559;DHT22;10940;48.890;8.240;2023-06-22T13:13:19;31.70;99.90
21559;DHT22;10940;48.890;8.240;2023-06-22T13:15:44;31.70;99.90
21559;DHT22;10940;48.890;8.240;2023-06-22T13:18:10;31.60;99.90
21559;DHT22;10940;48.890;8.240;2023-06-22T13:20:35;31.50;99.90
21559;DHT22;10940;48.890;8.240;2023-06-22T13:23:01;31.40;99.90
21559;DHT22;10940;48.890;8.240;2023-06-22T13:25:26;31.20;99.90
21559;DHT22;10940;48.890;8.240;2023-06-22T13:27:52;31.20;99.90
21559;DHT22;10940;48.890;8.240;2023-06-22T13:30:18;31.30;99.90
21559;DHT22;10940;48.890;8.240;2023-06-22T13:32:43;31.50;99.90
21559;DHT22;10940;48.890;8.240;2023-06-22T13:35:10;31.70;99.90
21559;DHT22;10940;48.890;8.240;2023-06-22T13:37:35;31.60;99.90
21559;DHT22;10940;48.890;8.240;2023-06-22T13:40:01;31.50;99.90
21559;DHT22;10940;48.890;8.240;2023-06-22T13:42:30;31.60;99.90
21559;DHT22;10940;48.890;8.240;2023-06-22T13:44:56;31.90;99.90
21559;DHT22;10940;48.890;8.240;2023-06-22T13:47:21;32.10;99.90
21559;DHT22;10940;48.890;8.240;2023-06-22T13:49:47;32.00;99.90
21559;DHT22;10940;48.890;8.240;2023-06-22T13:52:12;31.90;99.90
21559;DHT22;10940;48.890;8.240;2023-06-22T13:54:38;31.70;99.90
21559;DHT22;10940;48.890;8.240;2023-06-22T13:57:04;31.50;99.90
21559;DHT22;10940;48.890;8.240;2023-06-22T13:59:30;31.30;99.90
21559;DHT22;10940;48.890;8.240;2023-06-22T14:01:55;31.00;99.90
21559;DHT22;10940;48.890;8.240;2023-06-22T14:04:24;30.80;99.90
21559;DHT22;10940;48.890;8.240;2023-06-22T14:06:50;30.60;99.90
21559;DHT22;10940;48.890;8.240;2023-06-22T14:09:15;30.40;99.90
21559;DHT22;10940;48.890;8.240;2023-06-22T14:11:41;30.20;99.90
21559;DHT22;10940;48.890;8.240;2023-06-22T14:14:06;30.00;99.90
21559;DHT22;10940;48.890;8.240;2023-06-22T14:16:32;29.90;99.90
21559;DHT22;10940;48.890;8.240;2023-06-22T14:18:57;29.80;99.90
21559;DHT22;10940;48.890;8.240;2023-06-22T14:21:23;29.70;99.90
21559;DHT22;10940;48.890;8.240;2023-06-22T14:23:49;29.80;99.90
21559;DHT22;10940;48.890;8.240;2023-06-22T14:26:18;29.90;99.90
21559;DHT22;10940;48.890;8.240;2023-06-22T14:28:45;30.00;99.90
21559;DHT22;10940;48.890;8.240;2023-06-22T14:31:17;29.90;99.90
21559;DHT22;10940;48.890;8.240;2023-06-22T14:33:48;29.90;99.90
21559;DHT22;10940;48.890;8.240;2023-06-22T14:36:15;30.00;99.90
21559;DHT22;10940;48.890;8.240;2023-06-22T14:38:41;30.10;99.90
21559;DHT22;10940;48.890;8.240;2023-06-22T14:41:06;30.30;99.90
21559;DHT22;10940;48.890;8.240;2023-06-22T14:43:32;30.50;99.90
21559;DHT22;10940;48.890;8.240;2023-06-22T14:45:57;30.90;99.90
21559;DHT22;10940;48.890;8.240;2023-06-22T14:48:23;31.10;99.90
21559;DHT22;10940;48.890;8.240;2023-06-22T14:50:49;31.30;99.90
21559;DHT22;10940;48.890;8.240;2023-06-22T14:53:14;31.40;99.90
21559;DHT22;10940;48.890;8.240;2023-06-22T14:55:40;31.60;99.90
21559;DHT22;10940;48.890;8.240;2023-06-22T14:58:06;31.80;99.90
21559;DHT22;10940;48.890;8.240;2023-06-22T15:00:32;32.00;99.90
21559;DHT22;10940;48.890;8.240;2023-06-22T15:02:57;32.00;99.90
21559;DHT22;10940;48.890;8.240;2023-06-22T15:05:24;32.10;99.90
21559;DHT22;10940;48.890;8.240;2023-06-22T15:07:50;32.10;99.90
21559;DHT22;10940;48.890;8.240;2023-06-22T15:10:16;32.00;99.90
21559;DHT22;10940;48.890;8.240;2023-06-22T15:12:42;31.80;99.90
21559;DHT22;10940;48.890;8.240;2023-06-22T15:15:07;31.70;99.90
21559;DHT22;10940;48.890;8.240;2023-06-22T15:17:33;31.60;99.90
21559;DHT22;10940;48.890;8.240;2023-06-22T15:19:59;31.60;99.90
21559;DHT22;10940;48.890;8.240;2023-06-22T15:22:25;31.60;99.90
21559;DHT22;10940;48.890;8.240;2023-06-22T15:24:50;31.60;99.90
21559;DHT22;10940;48.890;8.240;2023-06-22T15:27:19;31.50;99.90
21559;DHT22;10940;48.890;8.240;2023-06-22T15:29:45;31.60;99.90
21559;DHT22;10940;48.890;8.240;2023-06-22T15:32:11;31.60;99.90
21559;DHT22;10940;48.890;8.240;2023-06-22T15:34:37;31.60;99.90